Time;durP1;ratioP1;P1;durP2;ratioP2;P2;SDS_P1;SDS_P2;PMS_P1;PMS_P2;Temp;Humidity;BMP_temperature;BMP_pressure;BME280_temperature;BME280_humidity;BME280_pressure;Samples;Min_cycle;Max_cycle;Signal;HPM_P1;HPM_P2
2023/06/05 00:00:06;;;;;;;7.27;3.10;;;;;;;17.21;83.12;97535.22;5026939;28;20645;-74
2023/06/05 00:02:38;;;;;;;8.00;3.37;;;;;;;16.96;83.80;97507.16;5026428;28;20198;-76
2023/06/05 00:05:08;;;;;;;11.13;3.67;;;;;;;17.07;83.63;97516.00;5026925;28;20211;-75
2023/06/05 00:07:39;;;;;;;7.40;3.70;;;;;;;17.02;84.17;97532.94;5026653;28;20714;-75
2023/06/05 00:10:08;;;;;;;10.80;3.70;;;;;;;17.03;83.64;97529.38;5026939;28;20215;-74
2023/06/05 00:12:36;;;;;;;6.27;3.30;;;;;;;17.05;84.24;97532.75;5027125;28;20238;-73
2023/06/05 00:15:04;;;;;;;7.83;3.37;;;;;;;17.06;84.24;97531.81;5030945;28;20282;-74
2023/06/05 00:17:33;;;;;;;8.13;3.30;;;;;;;16.94;84.06;97515.09;5031448;28;20209;-76
2023/06/05 00:20:01;;;;;;;8.27;2.87;;;;;;;17.06;84.19;97534.44;5030942;28;20199;-77
2023/06/05 00:22:31;;;;;;;6.93;3.40;;;;;;;16.99;84.09;97522.66;5031284;28;20230;-74
2023/06/05 00:24:58;;;;;;;7.73;3.60;;;;;;;17.10;83.90;97520.22;5030705;28;20212;-74
2023/06/05 00:27:25;;;;;;;6.67;3.00;;;;;;;16.87;83.91;97523.44;5030800;28;20205;-74
2023/06/05 00:29:53;;;;;;;5.53;3.17;;;;;;;16.78;84.17;97509.16;5029462;28;20249;-75
2023/06/05 00:32:20;;;;;;;6.90;3.30;;;;;;;16.50;85.52;97513.59;5030626;28;20231;-76
2023/06/05 00:34:49;;;;;;;8.03;3.87;;;;;;;16.43;85.96;97520.09;5029671;28;20674;-73
2023/06/05 00:37:17;;;;;;;12.40;4.13;;;;;;;16.32;86.29;97510.31;5029119;28;20249;-74
2023/06/05 00:39:44;;;;;;;5.23;3.10;;;;;;;16.33;86.24;97517.22;5030652;28;20202;-74
2023/06/05 00:42:11;;;;;;;10.47;4.50;;;;;;;16.19;86.48;97506.75;5030721;28;20192;-73
2023/06/05 00:44:40;;;;;;;11.50;3.50;;;;;;;16.45;85.55;97516.44;5030643;28;20273;-73
2023/06/05 00:47:07;;;;;;;10.33;3.83;;;;;;;16.22;85.75;97475.19;5030800;28;20661;-76
2023/06/05 00:49:35;;;;;;;8.93;3.90;;;;;;;16.47;84.45;97518.97;5028972;28;20226;-74
2023/06/05 00:52:02;;;;;;;12.03;3.87;;;;;;;16.42;84.58;97511.44;5046101;28;20230;-75
2023/06/05 00:54:29;;;;;;;5.83;3.40;;;;;;;16.76;83.87;97523.25;5029080;28;20199;-74
2023/06/05 00:56:57;;;;;;;7.07;3.30;;;;;;;16.95;83.25;97519.41;5029691;28;20582;-74
2023/06/05 00:59:24;;;;;;;9.80;3.60;;;;;;;17.02;82.42;97523.28;5030121;28;20251;-74
2023/06/05 01:01:52;;;;;;;6.73;3.70;;;;;;;17.24;82.15;97529.78;5030248;28;20187;-75
2023/06/05 01:04:19;;;;;;;11.37;4.00;;;;;;;17.30;81.78;97529.38;5030497;28;20255;-73
2023/06/05 01:06:47;;;;;;;10.33;3.43;;;;;;;16.95;81.37;97466.22;5030133;28;20203;-73
2023/06/05 01:09:14;;;;;;;9.90;3.70;;;;;;;17.37;80.58;97507.13;5030209;28;20263;-74
2023/06/05 01:12:02;;;;;;;6.67;3.67;;;;;;;17.44;80.71;97524.94;5030486;28;20228;-73
2023/06/05 01:14:32;;;;;;;12.57;3.33;;;;;;;17.34;80.25;97492.44;5030049;28;20191;-71
2023/06/05 01:17:02;;;;;;;8.27;3.10;;;;;;;17.38;80.37;97509.63;5045166;28;20196;-72
2023/06/05 01:19:31;;;;;;;12.00;4.00;;;;;;;17.41;80.04;97490.25;5029600;28;20294;-72
2023/06/05 01:21:59;;;;;;;12.43;3.67;;;;;;;17.36;80.68;97505.41;5030267;28;20230;-71
2023/06/05 01:24:27;;;;;;;7.20;3.43;;;;;;;17.38;80.38;97506.16;5029713;28;20262;-72
2023/06/05 01:27:00;;;;;;;6.87;3.20;;;;;;;17.34;80.56;97516.00;5029077;28;20201;-73
2023/06/05 01:29:43;;;;;;;5.93;2.80;;;;;;;17.38;80.09;97514.84;5029514;28;20751;-72
2023/06/05 01:32:25;;;;;;;5.17;2.80;;;;;;;17.22;80.97;97514.19;5029509;28;20272;-72
2023/06/05 01:34:53;;;;;;;7.23;2.87;;;;;;;17.06;81.92;97513.50;5029561;28;20191;-73
2023/06/05 01:37:24;;;;;;;9.27;3.30;;;;;;;17.20;81.75;97523.91;5044904;28;20318;-72
2023/06/05 01:39:55;;;;;;;12.50;4.53;;;;;;;17.13;81.54;97525.22;5029791;28;20208;-72
2023/06/05 01:42:23;;;;;;;17.00;7.63;;;;;;;17.02;82.62;97522.47;5028136;28;20211;-72
2023/06/05 01:44:52;;;;;;;16.50;6.67;;;;;;;16.97;83.28;97514.91;5029420;28;20198;-72
2023/06/05 01:47:21;;;;;;;8.43;3.73;;;;;;;17.17;82.26;97518.00;5030902;28;20614;-71
2023/06/05 01:49:48;;;;;;;9.40;3.10;;;;;;;17.33;81.92;97522.16;5028784;28;20674;-71
2023/06/05 01:52:15;;;;;;;10.20;3.40;;;;;;;17.24;81.78;97517.53;5029844;28;20247;-72
2023/06/05 01:54:42;;;;;;;6.27;3.67;;;;;;;17.09;81.72;97479.25;5029290;28;20235;-72
2023/06/05 01:57:10;;;;;;;8.13;3.40;;;;;;;17.36;81.39;97531.59;5029919;28;20210;-72
2023/06/05 01:59:38;;;;;;;5.43;2.97;;;;;;;17.40;81.43;97515.59;5027885;28;20522;-73
2023/06/05 02:02:05;;;;;;;7.87;3.60;;;;;;;17.41;80.98;97509.44;5045108;28;20194;-71
2023/06/05 02:04:32;;;;;;;6.93;3.67;;;;;;;17.52;81.19;97522.69;5044933;28;20327;-71
2023/06/05 02:07:03;;;;;;;11.13;3.40;;;;;;;17.54;80.52;97523.41;5029927;28;20204;-71
2023/06/05 02:09:33;;;;;;;5.23;2.90;;;;;;;17.53;81.11;97526.16;5029045;28;20342;-72
2023/06/05 02:12:05;;;;;;;6.60;3.30;;;;;;;17.67;81.30;97521.69;5029371;28;20244;-73
2023/06/05 02:14:35;;;;;;;9.87;4.10;;;;;;;17.52;81.87;97506.13;5029650;28;20203;-71
2023/06/05 02:17:06;;;;;;;7.57;3.60;;;;;;;17.62;81.80;97517.69;5028432;28;20699;-73
2023/06/05 02:19:33;;;;;;;12.20;4.37;;;;;;;17.53;82.58;97520.91;5028366;28;20212;-72
2023/06/05 02:22:01;;;;;;;8.00;3.70;;;;;;;17.40;83.15;97509.50;5029807;28;20231;-72
2023/06/05 02:24:28;;;;;;;9.23;3.20;;;;;;;17.40;82.02;97520.00;5031745;28;20191;-75
2023/06/05 02:26:56;;;;;;;7.73;3.33;;;;;;;17.34;81.63;97523.84;5031011;28;20282;-75
2023/06/05 02:29:24;;;;;;;10.40;4.07;;;;;;;17.27;81.60;97527.78;5031308;28;20227;-71
2023/06/05 02:31:51;;;;;;;6.73;3.37;;;;;;;17.27;81.20;97525.19;5029310;28;20238;-70
2023/06/05 02:34:19;;;;;;;6.57;3.37;;;;;;;17.23;81.73;97523.69;5029472;28;20262;-72
2023/06/05 02:36:46;;;;;;;8.90;3.20;;;;;;;17.12;82.32;97534.03;5029294;28;20718;-71
2023/06/05 02:39:14;;;;;;;5.20;3.13;;;;;;;17.19;81.98;97532.69;5030260;28;20206;-72
2023/06/05 02:41:44;;;;;;;8.73;3.80;;;;;;;17.21;82.13;97522.16;5047549;28;20261;-75
2023/06/05 02:44:11;;;;;;;10.70;3.47;;;;;;;17.09;83.16;97523.75;5030348;28;20233;-71
2023/06/05 02:46:38;;;;;;;11.37;3.70;;;;;;;17.08;82.93;97530.75;5030328;28;20279;-73
2023/06/05 02:49:06;;;;;;;9.13;4.00;;;;;;;17.09;83.03;97527.22;5031174;28;20666;-74
2023/06/05 02:51:33;;;;;;;10.00;3.70;;;;;;;17.14;82.96;97526.09;5028161;28;20207;-73
2023/06/05 02:54:00;;;;;;;11.63;3.10;;;;;;;17.13;82.97;97514.75;5029680;28;20765;-72
2023/06/05 02:56:27;;;;;;;9.33;3.43;;;;;;;17.20;82.81;97526.53;5028025;28;20597;-73
2023/06/05 02:58:56;;;;;;;8.37;4.47;;;;;;;17.15;82.40;97518.13;5043809;28;20206;-72
2023/06/05 03:01:25;;;;;;;12.87;3.80;;;;;;;17.15;82.98;97528.59;5010284;28;20218;-72
2023/06/05 03:03:53;;;;;;;12.77;3.90;;;;;;;17.13;82.72;97527.84;5026370;28;20211;-71
2023/06/05 03:06:27;;;;;;;8.67;3.27;;;;;;;17.19;82.24;97530.06;5043563;28;20200;-74
2023/06/05 03:08:56;;;;;;;13.80;3.80;;;;;;;17.28;82.15;97526.88;5026439;28;20204;-72
2023/06/05 03:11:25;;;;;;;6.10;3.17;;;;;;;17.01;81.99;97494.63;5026707;28;20200;-73
2023/06/05 03:13:53;;;;;;;9.07;3.33;;;;;;;17.32;81.91;97530.13;5026350;28;20223;-75
2023/06/05 03:16:23;;;;;;;9.93;4.03;;;;;;;17.17;82.19;97518.84;5018479;28;20188;-72
2023/06/05 03:18:55;;;;;;;12.00;3.43;;;;;;;17.21;82.26;97527.38;5007466;28;20226;-71
2023/06/05 03:21:22;;;;;;;9.93;3.63;;;;;;;17.15;82.91;97530.34;5026122;28;20745;-72
2023/06/05 03:23:50;;;;;;;9.67;3.90;;;;;;;17.14;82.66;97524.31;5028771;28;20664;-75
2023/06/05 03:26:18;;;;;;;10.50;3.37;;;;;;;17.19;82.77;97529.25;5026038;28;20242;-74
2023/06/05 03:28:46;;;;;;;7.63;3.90;;;;;;;17.21;82.78;97535.22;5027447;28;20207;-76
2023/06/05 03:31:15;;;;;;;17.07;4.20;;;;;;;17.28;82.53;97534.72;5026043;28;20274;-74
2023/06/05 03:33:45;;;;;;;88.40;14.67;;;;;;;17.45;81.53;97520.53;5025608;28;20785;-76
2023/06/05 03:36:17;;;;;;;18.70;5.13;;;;;;;17.48;81.29;97525.56;5021434;28;20243;-74
2023/06/05 03:38:46;;;;;;;8.03;3.43;;;;;;;17.45;81.08;97526.63;5025944;28;20231;-75
2023/06/05 03:41:13;;;;;;;12.27;3.90;;;;;;;17.49;81.20;97522.91;5022420;28;20682;-77
2023/06/05 03:43:40;;;;;;;10.83;3.70;;;;;;;17.55;80.62;97519.03;5012983;28;20306;-74
2023/06/05 03:46:07;;;;;;;7.47;4.47;;;;;;;17.64;79.94;97527.09;5014465;28;20203;-71
2023/06/05 03:48:35;;;;;;;10.97;4.03;;;;;;;17.60;80.55;97528.25;4991924;28;20701;-72
2023/06/05 03:51:02;;;;;;;21.20;4.37;;;;;;;17.57;80.95;97515.38;5013492;28;20204;-77
2023/06/05 03:53:30;;;;;;;11.43;4.27;;;;;;;17.63;80.95;97525.44;5025536;28;20234;-72
2023/06/05 03:55:59;;;;;;;11.47;3.90;;;;;;;17.44;81.11;97529.31;5016156;28;20605;-75
2023/06/05 03:58:33;;;;;;;7.60;3.97;;;;;;;17.21;82.99;97522.16;5016757;28;21065;-72
2023/06/05 04:01:02;;;;;;;10.50;4.53;;;;;;;17.01;83.99;97523.41;5016032;28;20202;-73
2023/06/05 04:03:29;;;;;;;10.13;4.13;;;;;;;16.92;84.66;97522.19;5017347;28;20194;-77
2023/06/05 04:05:57;;;;;;;7.27;4.07;;;;;;;16.71;85.90;97500.00;5017532;28;20188;-77
2023/06/05 04:08:24;;;;;;;7.70;4.90;;;;;;;16.93;85.14;97517.81;5017183;28;20187;-73
2023/06/05 04:10:52;;;;;;;12.10;4.07;;;;;;;17.07;85.19;97525.63;5017426;28;20670;-72
2023/06/05 04:13:21;;;;;;;9.73;4.37;;;;;;;16.73;86.73;97515.63;5015864;28;20507;-73
2023/06/05 04:15:49;;;;;;;7.67;4.67;;;;;;;16.92;85.64;97518.75;5005123;28;20295;-73
2023/06/05 04:18:17;;;;;;;11.73;4.50;;;;;;;16.86;85.07;97487.75;5025526;28;20675;-75
2023/06/05 04:20:46;;;;;;;9.97;4.63;;;;;;;17.13;85.20;97519.16;5025401;28;20198;-75
2023/06/05 04:23:14;;;;;;;12.40;4.70;;;;;;;17.16;84.87;97522.44;5025248;28;20283;-74
2023/06/05 04:25:45;;;;;;;7.63;4.77;;;;;;;17.24;84.72;97511.47;5025349;28;20724;-73
2023/06/05 04:28:13;;;;;;;11.17;5.60;;;;;;;17.72;83.16;97530.06;5023095;28;20200;-77
2023/06/05 04:30:40;;;;;;;8.00;4.47;;;;;;;17.86;82.05;97531.78;5016396;28;20662;-77
2023/06/05 04:33:07;;;;;;;10.27;4.87;;;;;;;18.03;81.04;97517.53;5025386;28;20229;-74
2023/06/05 04:35:38;;;;;;;9.23;5.53;;;;;;;18.29;80.43;97525.31;5005975;28;20216;-74
2023/06/05 04:38:05;;;;;;;10.17;6.00;;;;;;;18.60;78.69;97524.88;5026449;28;20247;-77
2023/06/05 04:40:32;;;;;;;9.50;5.33;;;;;;;18.65;79.32;97517.53;5026614;28;20649;-74
2023/06/05 04:42:59;;;;;;;12.90;5.77;;;;;;;19.10;77.93;97523.91;5041715;28;20567;-74
2023/06/05 04:45:26;;;;;;;10.30;5.83;;;;;;;19.21;76.99;97531.84;5026473;28;20688;-74
2023/06/05 04:47:54;;;;;;;9.93;5.60;;;;;;;19.24;76.42;97512.41;5025330;28;20644;-77
2023/06/05 04:50:26;;;;;;;12.87;6.87;;;;;;;19.28;75.94;97540.97;5026816;28;20213;-74
2023/06/05 04:53:03;;;;;;;14.10;6.67;;;;;;;19.25;76.07;97530.69;5025009;28;20229;-73
2023/06/05 04:55:32;;;;;;;13.73;6.50;;;;;;;19.12;76.67;97518.56;5024847;28;20679;-73
2023/06/05 04:58:00;;;;;;;13.30;6.40;;;;;;;19.27;76.22;97514.78;5041425;28;20211;-73
2023/06/05 05:00:31;;;;;;;10.70;6.00;;;;;;;19.17;76.81;97519.91;5028465;28;20641;-73
2023/06/05 05:02:59;;;;;;;13.47;5.97;;;;;;;19.32;76.56;97526.66;5028644;28;20248;-73
2023/06/05 05:05:28;;;;;;;11.80;5.60;;;;;;;19.71;74.69;97517.66;5027947;28;20213;-73
2023/06/05 05:07:56;;;;;;;13.17;6.30;;;;;;;19.80;74.48;97531.91;5028689;28;20198;-74
2023/06/05 05:10:29;;;;;;;15.20;6.70;;;;;;;20.05;73.59;97529.13;5028227;28;20236;-74
2023/06/05 05:12:56;;;;;;;11.03;6.33;;;;;;;20.21;72.40;97534.91;5029620;28;20230;-73
2023/06/05 05:15:24;;;;;;;10.10;5.70;;;;;;;20.15;72.79;97523.00;5046187;28;20199;-73
2023/06/05 05:17:51;;;;;;;11.90;5.80;;;;;;;20.11;72.48;97529.47;5033183;28;20568;-73
2023/06/05 05:20:19;;;;;;;11.73;6.13;;;;;;;20.25;72.48;97542.47;5028504;28;20222;-73
2023/06/05 05:22:47;;;;;;;11.60;5.63;;;;;;;20.50;71.47;97545.81;5027724;28;20207;-72
2023/06/05 05:25:15;;;;;;;15.13;6.70;;;;;;;20.56;71.18;97551.47;5028082;28;20198;-75
2023/06/05 05:27:42;;;;;;;15.90;6.90;;;;;;;20.80;70.77;97560.06;5029060;28;20209;-75
2023/06/05 05:30:10;;;;;;;14.97;6.57;;;;;;;21.20;70.19;97547.25;5011662;28;20214;-73
2023/06/05 05:32:37;;;;;;;13.30;7.07;;;;;;;21.50;68.88;97559.72;5027797;28;21122;-75
2023/06/05 05:35:06;;;;;;;10.70;6.63;;;;;;;21.21;69.29;97558.59;5027866;28;20200;-74
2023/06/05 05:37:34;;;;;;;10.40;5.27;;;;;;;21.50;68.86;97554.47;5027979;28;20231;-72
2023/06/05 05:40:03;;;;;;;10.10;5.90;;;;;;;21.79;67.78;97539.75;5027786;28;20598;-71
2023/06/05 05:42:31;;;;;;;12.90;5.90;;;;;;;21.98;66.87;97558.38;5027986;28;20622;-72
2023/06/05 05:44:59;;;;;;;9.33;6.20;;;;;;;22.01;66.53;97547.56;5029232;28;20286;-72
2023/06/05 05:47:26;;;;;;;9.17;5.70;;;;;;;21.75;67.06;97551.50;5029090;28;20201;-73
2023/06/05 05:49:53;;;;;;;15.47;6.13;;;;;;;21.71;68.77;97555.34;5028887;28;20274;-73
2023/06/05 05:52:22;;;;;;;9.17;5.17;;;;;;;21.55;68.40;97562.84;5028615;28;20212;-75
2023/06/05 05:54:49;;;;;;;7.63;4.83;;;;;;;21.43;69.07;97550.66;5029706;28;20196;-72
2023/06/05 05:57:16;;;;;;;12.47;5.90;;;;;;;21.32;69.87;97541.00;5028798;28;20287;-76
2023/06/05 05:59:46;;;;;;;8.67;5.83;;;;;;;21.29;69.66;97557.03;5029366;28;20287;-78
2023/06/05 06:02:13;;;;;;;11.67;6.10;;;;;;;21.45;69.04;97525.03;5028687;28;20573;-78
2023/06/05 06:04:43;;;;;;;9.67;6.10;;;;;;;21.60;69.28;97542.19;5028768;28;20634;-70
2023/06/05 06:07:11;;;;;;;9.07;5.47;;;;;;;21.42;69.77;97489.22;5027425;28;20208;-73
2023/06/05 06:09:39;;;;;;;9.93;6.63;;;;;;;21.87;68.73;97542.59;5028116;28;20197;-79
2023/06/05 06:12:07;;;;;;;12.60;6.80;;;;;;;21.75;68.55;97546.22;5027834;28;20294;-69
2023/06/05 06:14:34;;;;;;;10.50;5.63;;;;;;;21.37;69.31;97538.00;5028126;28;20229;-74
2023/06/05 06:17:04;;;;;;;10.97;6.70;;;;;;;21.51;68.78;97558.78;5028761;28;20204;-72
2023/06/05 06:19:32;;;;;;;11.93;5.70;;;;;;;21.70;68.87;97551.88;5027967;28;20207;-70
2023/06/05 06:22:00;;;;;;;7.93;5.70;;;;;;;21.69;68.91;97560.75;5027851;28;20199;-73
2023/06/05 06:24:27;;;;;;;9.77;5.63;;;;;;;21.58;69.37;97562.59;5043806;28;20197;-71
2023/06/05 06:26:54;;;;;;;9.73;5.20;;;;;;;21.80;69.93;97554.59;5026778;28;20221;-71
2023/06/05 06:29:27;;;;;;;9.13;5.30;;;;;;;21.88;68.39;97555.66;5025122;28;20265;-72
2023/06/05 06:31:54;;;;;;;6.73;4.60;;;;;;;21.51;68.42;97548.25;5025249;28;20258;-72
2023/06/05 06:34:21;;;;;;;6.80;4.40;;;;;;;21.83;67.27;97551.72;5025833;28;20755;-71
2023/06/05 06:36:49;;;;;;;10.60;5.77;;;;;;;21.98;67.79;97544.34;5027265;28;20266;-73
2023/06/05 06:39:16;;;;;;;7.33;5.17;;;;;;;22.49;66.73;97551.34;5027302;28;20189;-72
2023/06/05 06:41:44;;;;;;;8.63;4.53;;;;;;;22.36;66.30;97540.16;5027247;28;20208;-72
2023/06/05 06:44:11;;;;;;;9.67;5.47;;;;;;;22.49;64.61;97537.31;5027219;28;20211;-73
2023/06/05 06:46:38;;;;;;;7.20;4.50;;;;;;;22.34;64.61;97539.44;5027472;28;20239;-72
2023/06/05 06:49:06;;;;;;;10.90;4.83;;;;;;;22.54;64.58;97543.03;5026947;28;20243;-70
2023/06/05 06:51:33;;;;;;;7.77;5.33;;;;;;;22.88;63.96;97533.91;5027050;28;20213;-71
2023/06/05 06:54:00;;;;;;;7.87;6.17;;;;;;;23.19;62.41;97539.97;5027082;28;20672;-74
2023/06/05 06:56:27;;;;;;;5.93;4.60;;;;;;;23.49;60.76;97539.09;5027219;28;20281;-72
2023/06/05 06:58:55;;;;;;;6.67;4.77;;;;;;;23.77;60.14;97544.38;5025865;28;20264;-74
2023/06/05 07:01:23;;;;;;;6.97;4.30;;;;;;;23.73;59.90;97519.19;5027170;28;20865;-74
2023/06/05 07:03:51;;;;;;;6.20;4.23;;;;;;;24.02;59.35;97551.75;5025680;28;20206;-77
2023/06/05 07:06:21;;;;;;;11.40;5.20;;;;;;;23.85;60.75;97527.81;5026957;28;20234;-73
2023/06/05 07:08:48;;;;;;;7.23;4.90;;;;;;;24.03;60.03;97534.94;5027713;28;20206;-70
2023/06/05 07:11:15;;;;;;;6.53;4.57;;;;;;;23.72;59.78;97541.31;5025768;28;20673;-73
2023/06/05 07:13:42;;;;;;;9.30;5.60;;;;;;;23.52;60.63;97544.94;5025710;28;20240;-75
2023/06/05 07:16:09;;;;;;;7.37;4.47;;;;;;;23.51;60.72;97543.28;5025998;28;20207;-73
2023/06/05 07:18:37;;;;;;;8.33;6.10;;;;;;;23.66;60.54;97549.81;5026706;28;20719;-75
2023/06/05 07:21:04;;;;;;;7.87;4.80;;;;;;;23.59;60.54;97546.06;5026784;28;20570;-76
2023/06/05 07:23:32;;;;;;;9.03;4.93;;;;;;;23.49;60.76;97547.03;5025865;28;20690;-75
2023/06/05 07:25:59;;;;;;;9.20;5.10;;;;;;;23.36;62.16;97544.63;5026379;28;20624;-76
2023/06/05 07:28:26;;;;;;;9.63;5.60;;;;;;;23.23;62.86;97525.50;5025597;28;20259;-77
2023/06/05 07:30:53;;;;;;;7.93;5.23;;;;;;;23.15;62.97;97544.69;5026321;28;20659;-76
2023/06/05 07:33:20;;;;;;;9.00;5.30;;;;;;;22.73;63.60;97540.50;5037036;28;20238;-75
2023/06/05 07:36:00;;;;;;;11.60;7.37;;;;;;;22.87;63.58;97526.13;5045856;28;20192;-76
2023/06/05 07:38:29;;;;;;;7.87;5.80;;;;;;;23.17;62.84;97537.47;5040001;28;20238;-75
2023/06/05 07:40:58;;;;;;;12.00;7.77;;;;;;;23.37;62.47;97517.22;5026528;28;20283;-70
2023/06/05 07:43:25;;;;;;;9.27;5.80;;;;;;;23.73;62.39;97540.34;5033494;28;20768;-72
2023/06/05 07:45:53;;;;;;;10.63;6.17;;;;;;;23.29;63.38;97535.53;5026046;28;20204;-76
2023/06/05 07:48:20;;;;;;;7.83;5.73;;;;;;;23.17;62.84;97536.63;5026514;28;20204;-74
2023/06/05 07:50:47;;;;;;;8.97;6.27;;;;;;;23.32;62.57;97553.81;5026015;28;20210;-72
2023/06/05 07:53:14;;;;;;;10.27;7.50;;;;;;;23.23;62.95;97536.06;5025747;28;21129;-74
2023/06/05 07:55:42;;;;;;;10.40;6.63;;;;;;;23.08;61.91;97526.88;5026107;28;20276;-75
2023/06/05 07:58:09;;;;;;;8.53;6.13;;;;;;;23.01;62.02;97523.09;5025885;28;20195;-74
2023/06/05 08:00:36;;;;;;;9.80;6.97;;;;;;;22.92;61.81;97526.53;5024816;28;20191;-71
2023/06/05 08:03:03;;;;;;;9.37;6.00;;;;;;;23.05;61.87;97524.50;5025741;28;20209;-72
2023/06/05 08:05:33;;;;;;;8.57;6.60;;;;;;;23.13;61.11;97514.06;5026800;28;20227;-72
2023/06/05 08:08:01;;;;;;;10.07;6.60;;;;;;;23.45;59.91;97531.41;5026081;28;20283;-74
2023/06/05 08:10:28;;;;;;;13.90;7.73;;;;;;;23.85;59.42;97531.28;5025834;28;20194;-72
2023/06/05 08:12:55;;;;;;;12.60;7.07;;;;;;;24.28;57.01;97525.56;5025586;28;20201;-73
2023/06/05 08:15:22;;;;;;;9.00;6.00;;;;;;;24.26;57.39;97511.63;5025822;28;20231;-72
2023/06/05 08:17:50;;;;;;;10.57;6.83;;;;;;;24.56;56.50;97527.31;5025931;28;20682;-71
2023/06/05 08:20:17;;;;;;;8.87;5.60;;;;;;;24.64;54.68;97531.88;5023847;28;20201;-72
2023/06/05 08:22:44;;;;;;;9.07;4.53;;;;;;;24.92;53.24;97525.63;5025616;28;20240;-72
2023/06/05 08:25:11;;;;;;;9.60;6.37;;;;;;;24.84;54.82;97533.50;5024989;28;20759;-72
2023/06/05 08:27:38;;;;;;;6.93;5.70;;;;;;;24.75;54.40;97516.66;5021031;28;20664;-75
2023/06/05 08:30:06;;;;;;;8.57;5.43;;;;;;;24.98;55.54;97499.38;5025731;28;20202;-73
2023/06/05 08:32:33;;;;;;;6.17;4.90;;;;;;;25.19;53.36;97524.78;5025482;28;20233;-72
2023/06/05 08:35:00;;;;;;;5.80;4.67;;;;;;;24.94;51.15;97518.38;5028465;28;20236;-73
2023/06/05 08:37:29;;;;;;;8.80;6.50;;;;;;;24.39;50.89;97522.75;5029273;28;20229;-70
2023/06/05 08:39:59;;;;;;;5.60;4.30;;;;;;;24.79;51.41;97531.28;5028501;28;20223;-72
2023/06/05 08:42:30;;;;;;;6.10;4.30;;;;;;;24.91;51.21;97518.69;5028934;28;20209;-72
2023/06/05 08:44:57;;;;;;;8.33;5.97;;;;;;;24.77;52.57;97524.47;5027902;28;20695;-71
2023/06/05 08:47:36;;;;;;;5.17;4.60;;;;;;;25.07;52.64;97524.19;5012583;28;20305;-71
2023/06/05 08:50:05;;;;;;;5.83;5.07;;;;;;;24.94;51.04;97526.31;5029336;28;20206;-72
2023/06/05 08:52:36;;;;;;;6.07;4.23;;;;;;;24.59;51.36;97508.47;5029507;28;20296;-72
2023/06/05 08:55:05;;;;;;;6.53;4.50;;;;;;;24.63;52.21;97525.72;5029187;28;20233;-73
2023/06/05 08:57:36;;;;;;;10.30;4.90;;;;;;;25.00;51.62;97523.09;5029514;28;20541;-74
2023/06/05 09:00:10;;;;;;;7.77;4.83;;;;;;;24.91;52.12;97516.03;5029101;28;20200;-72
2023/06/05 09:02:40;;;;;;;8.43;4.20;;;;;;;25.24;49.69;97515.44;5029108;28;20216;-74
2023/06/05 09:05:08;;;;;;;5.37;3.90;;;;;;;24.96;48.77;97489.91;5029047;28;20185;-71
2023/06/05 09:07:36;;;;;;;6.90;5.43;;;;;;;25.17;48.33;97509.03;5028572;28;20260;-70
2023/06/05 09:10:05;;;;;;;6.10;4.17;;;;;;;25.40;48.27;97523.56;5027645;28;21000;-71
2023/06/05 09:12:52;;;;;;;8.30;6.23;;;;;;;25.30;47.86;97511.34;5028445;28;20199;-71
2023/06/05 09:15:30;;;;;;;5.70;3.70;;;;;;;25.11;48.85;97509.63;5028671;28;20239;-72
2023/06/05 09:18:11;;;;;;;6.93;5.90;;;;;;;24.63;47.63;97501.88;5028325;28;20239;-72
2023/06/05 09:20:41;;;;;;;5.20;3.33;;;;;;;24.79;46.60;97503.97;5028437;28;20312;-74
2023/06/05 09:23:22;;;;;;;5.60;4.43;;;;;;;24.61;48.07;97510.94;5027176;28;20698;-70
2023/06/05 09:25:58;;;;;;;5.40;3.93;;;;;;;24.21;48.81;97514.69;5028941;28;20212;-71
2023/06/05 09:28:26;;;;;;;6.00;4.07;;;;;;;23.99;51.11;97512.34;5028733;28;20261;-70
2023/06/05 09:30:57;;;;;;;5.47;4.00;;;;;;;23.97;51.55;97516.94;5028545;28;20207;-72
2023/06/05 09:33:28;;;;;;;4.77;3.50;;;;;;;24.02;51.95;97508.59;5028325;28;20286;-71
2023/06/05 09:36:10;;;;;;;7.20;5.97;;;;;;;24.33;50.54;97522.47;5028745;28;20287;-72
2023/06/05 09:38:39;;;;;;;4.50;3.57;;;;;;;24.49;48.85;97497.06;5028190;28;20214;-73
2023/06/05 09:41:20;;;;;;;4.60;4.00;;;;;;;24.63;49.97;97499.25;5028894;28;20194;-71
2023/06/05 09:43:49;;;;;;;4.70;3.93;;;;;;;25.04;50.24;97513.84;5028040;28;20211;-71
2023/06/05 09:46:17;;;;;;;5.67;4.03;;;;;;;24.87;50.05;97509.34;5025404;28;20205;-73
2023/06/05 09:48:57;;;;;;;5.83;3.70;;;;;;;24.74;49.37;97514.16;5019425;28;20324;-71
2023/06/05 09:51:24;;;;;;;6.27;4.27;;;;;;;24.29;51.47;97505.22;5025672;28;20671;-71
2023/06/05 09:53:51;;;;;;;4.83;3.53;;;;;;;24.48;50.23;97499.88;5028254;28;20229;-72
2023/06/05 09:56:21;;;;;;;7.10;4.37;;;;;;;24.14;51.79;97491.59;5028144;28;20655;-71
2023/06/05 09:58:50;;;;;;;7.20;4.13;;;;;;;24.60;52.57;97502.19;5028053;28;20201;-73
2023/06/05 10:01:24;;;;;;;7.63;4.70;;;;;;;24.57;50.64;97488.38;5027900;28;20197;-73
2023/06/05 10:04:03;;;;;;;8.37;5.30;;;;;;;24.12;52.66;97493.56;5027937;28;20192;-71
2023/06/05 10:06:32;;;;;;;7.30;4.80;;;;;;;24.83;52.19;97492.91;5028589;28;20257;-73
2023/06/05 10:09:00;;;;;;;5.70;3.93;;;;;;;23.97;53.23;97495.78;5027758;28;20203;-74
2023/06/05 10:11:27;;;;;;;5.70;3.73;;;;;;;24.09;53.63;97485.91;5026478;28;20217;-72
2023/06/05 10:13:58;;;;;;;8.70;4.07;;;;;;;24.29;53.30;97478.75;5027596;28;20237;-72
2023/06/05 10:16:30;;;;;;;4.73;4.00;;;;;;;24.53;52.67;97471.97;5027280;28;20646;-75
2023/06/05 10:18:59;;;;;;;7.67;4.40;;;;;;;24.45;52.02;97465.72;5027495;28;20247;-72
2023/06/05 10:21:28;;;;;;;11.27;4.97;;;;;;;24.38;52.47;97478.69;5027487;28;20262;-72
2023/06/05 10:23:56;;;;;;;6.83;3.70;;;;;;;24.53;52.40;97476.41;5027744;28;20189;-71
2023/06/05 10:27:15;;;;;;;5.20;4.07;;;;;;;24.72;50.37;97471.88;5026746;28;20216;-73
2023/06/05 10:30:00;;;;;;;6.63;4.53;;;;;;;24.66;50.74;97476.94;4973895;28;20201;-71
2023/06/05 10:33:03;;;;;;;8.07;5.20;;;;;;;24.58;51.55;97463.59;5027802;28;20744;-77
2023/06/05 10:35:48;;;;;;;7.43;5.00;;;;;;;24.55;51.28;97437.38;5025301;28;20236;-71
2023/06/05 10:38:21;;;;;;;7.23;4.83;;;;;;;24.92;50.86;97477.94;5027188;28;20248;-71
2023/06/05 10:40:54;;;;;;;5.67;4.03;;;;;;;24.58;49.67;97469.72;5027354;28;20752;-74
2023/06/05 10:43:47;;;;;;;6.57;4.47;;;;;;;24.82;49.13;97461.25;5025249;28;20202;-73
2023/06/05 10:46:28;;;;;;;7.67;4.60;;;;;;;24.80;49.52;97465.88;5027095;28;20228;-74
2023/06/05 10:49:07;;;;;;;11.83;5.00;;;;;;;24.65;50.25;97464.66;5026649;28;20573;-73
2023/06/05 10:51:37;;;;;;;11.27;6.07;;;;;;;25.09;49.35;97468.34;5027102;28;20197;-74
2023/06/05 10:54:06;;;;;;;6.00;3.83;;;;;;;24.98;50.10;97472.03;5025773;28;20315;-76
2023/06/05 10:57:02;;;;;;;5.43;4.43;;;;;;;25.42;47.92;97459.78;5025988;28;20252;-73
2023/06/05 10:59:33;;;;;;;6.47;4.03;;;;;;;25.47;47.83;97458.31;5026684;28;20570;-75
2023/06/05 11:02:05;;;;;;;6.13;4.23;;;;;;;25.67;45.63;97464.31;5026176;28;20267;-73
2023/06/05 11:04:47;;;;;;;5.83;3.67;;;;;;;25.59;45.56;97462.44;5027802;28;20202;-76
2023/06/05 11:07:26;;;;;;;5.17;3.40;;;;;;;25.41;45.66;97463.44;5027626;28;20209;-73
2023/06/05 11:10:05;;;;;;;6.53;4.03;;;;;;;25.61;44.68;97463.13;5027105;28;20195;-73
2023/06/05 11:12:35;;;;;;;5.00;3.40;;;;;;;25.88;43.88;97463.97;5026618;28;20216;-77
2023/06/05 11:15:04;;;;;;;5.60;3.00;;;;;;;25.34;43.51;97460.50;5026707;28;20239;-74
2023/06/05 11:17:36;;;;;;;7.23;4.10;;;;;;;25.43;42.82;97464.09;5026725;28;20208;-77
2023/06/05 11:20:09;;;;;;;5.00;3.30;;;;;;;25.73;42.79;97456.59;5027149;28;20213;-77
2023/06/05 11:23:03;;;;;;;7.63;3.97;;;;;;;25.86;42.26;97463.31;5026313;28;20209;-76
2023/06/05 11:25:32;;;;;;;8.37;4.93;;;;;;;25.83;42.82;97453.81;5022527;28;20245;-73
2023/06/05 11:28:02;;;;;;;6.50;3.30;;;;;;;25.03;42.74;97461.84;5026236;28;20208;-74
2023/06/05 11:30:32;;;;;;;3.50;2.63;;;;;;;25.37;43.03;97452.22;5026549;28;20191;-74
2023/06/05 11:33:15;;;;;;;4.87;3.27;;;;;;;25.54;42.43;97463.84;5025370;28;20773;-74
2023/06/05 11:35:45;;;;;;;4.10;3.57;;;;;;;25.89;42.25;97457.66;5025840;28;20247;-72
2023/06/05 11:38:18;;;;;;;6.87;3.63;;;;;;;26.10;41.60;97458.19;5024708;28;20229;-71
2023/06/05 11:40:49;;;;;;;3.77;3.13;;;;;;;25.91;40.93;97472.47;5026412;28;20214;-75
2023/06/05 11:43:16;;;;;;;5.87;3.27;;;;;;;25.93;41.56;97456.38;5025923;28;20195;-72